Time;durP1;ratioP1;P1;durP2;ratioP2;P2;SDS_P1;SDS_P2;PMS_P1;PMS_P2;Temp;Humidity;BMP_temperature;BMP_pressure;BME280_temperature;BME280_humidity;BME280_pressure;Samples;Min_cycle;Max_cycle;Signal;HPM_P1;HPM_P2
2024/03/04 00:02:13;;;;;;;;;8.00;8.00;;;;;21.65;38.97;100927.84;6399751;22;45278;-73
2024/03/04 00:04:38;;;;;;;;;13.75;9.00;;;;;21.65;39.00;100932.31;6400112;22;45344;-75
2024/03/04 00:07:06;;;;;;;;;10.00;10.00;;;;;21.65;38.52;100930.47;6400421;22;45189;-76
2024/03/04 00:09:31;;;;;;;;;12.50;11.75;;;;;21.65;38.60;100935.78;6399788;22;52143;-75
2024/03/04 00:11:57;;;;;;;;;12.00;10.75;;;;;21.61;38.95;100924.72;6399164;22;51671;-74
2024/03/04 00:14:23;;;;;;;;;10.00;9.00;;;;;21.56;38.52;100923.59;6400354;22;45330;-75
2024/03/04 00:16:48;;;;;;;;;12.25;8.50;;;;;21.66;38.96;100939.25;6399925;22;45355;-75
2024/03/04 00:19:18;;;;;;;;;11.25;10.00;;;;;21.64;38.78;100931.50;6399505;22;45909;-75
2024/03/04 00:21:44;;;;;;;;;10.50;8.75;;;;;21.65;38.89;100937.63;6399556;22;45307;-76
2024/03/04 00:24:09;;;;;;;;;12.50;8.75;;;;;21.63;38.76;100930.66;6400036;22;45208;-75
2024/03/04 00:26:35;;;;;;;;;10.00;9.50;;;;;21.62;38.71;100933.50;6399308;22;54246;-75
2024/03/04 00:29:01;;;;;;;;;10.50;7.50;;;;;21.62;38.40;100944.91;6399767;22;46292;-75
2024/03/04 00:31:26;;;;;;;;;8.00;7.00;;;;;21.62;39.17;100950.19;6399480;22;45736;-77
2024/03/04 00:33:52;;;;;;;;;10.00;9.00;;;;;21.62;38.45;100947.53;6399827;22;45305;-75
2024/03/04 00:36:21;;;;;;;;;12.00;8.75;;;;;21.62;38.78;100944.91;6399790;22;45390;-75
2024/03/04 00:38:47;;;;;;;;;9.00;8.00;;;;;21.62;38.53;100952.84;6399233;22;46323;-75
2024/03/04 00:41:12;;;;;;;;;8.75;7.50;;;;;21.63;38.86;100953.66;6398634;22;59007;-75
2024/03/04 00:43:37;;;;;;;;;15.50;12.00;;;;;21.63;38.67;100956.31;6399307;22;50824;-75
2024/03/04 00:46:02;;;;;;;;;13.00;11.00;;;;;21.62;38.39;100954.69;6399522;22;51293;-75
2024/03/04 00:48:28;;;;;;;;;9.50;9.50;;;;;21.54;38.35;100941.50;6399927;22;45291;-75
2024/03/04 00:50:56;;;;;;;;;9.00;8.00;;;;;21.59;38.37;100953.22;6399444;22;45278;-76
2024/03/04 00:53:22;;;;;;;;;12.00;10.75;;;;;21.56;38.86;100944.78;6399965;22;45311;-75
2024/03/04 00:55:49;;;;;;;;;16.25;11.50;;;;;21.62;38.45;100959.97;6399424;22;45336;-75
2024/03/04 00:58:14;;;;;;;;;11.25;10.25;;;;;21.61;38.34;100953.84;6399294;22;47048;-75
2024/03/04 01:00:39;;;;;;;;;11.75;10.75;;;;;21.61;38.61;100951.22;6399470;22;45283;-74
2024/03/04 01:03:05;;;;;;;;;10.00;9.75;;;;;21.61;38.83;100950.38;6399512;22;45248;-75
2024/03/04 01:05:31;;;;;;;;;11.25;8.50;;;;;21.61;38.85;100953.03;6399465;22;45228;-74
2024/03/04 01:07:56;;;;;;;;;13.25;9.00;;;;;21.59;38.51;100944.44;6399681;22;45923;-74
2024/03/04 01:10:22;;;;;;;;;10.00;9.75;;;;;21.58;38.73;100943.59;6399324;22;45111;-75
2024/03/04 01:12:49;;;;;;;;;11.25;9.75;;;;;21.54;38.72;100933.53;6399552;22;45233;-76
2024/03/04 01:15:14;;;;;;;;;10.00;10.00;;;;;21.59;38.29;100945.25;6400444;22;45356;-75
2024/03/04 01:17:40;;;;;;;;;10.50;9.75;;;;;21.59;38.66;100945.25;6400438;22;46831;-76
2024/03/04 01:20:10;;;;;;;;;12.25;10.00;;;;;21.60;38.77;100946.06;6400091;22;64889;-75
2024/03/04 01:22:36;;;;;;;;;11.25;10.00;;;;;21.56;38.36;100947.44;6400547;22;45291;-75
2024/03/04 01:25:02;;;;;;;;;11.50;9.00;;;;;21.58;38.27;100933.00;6400216;22;45371;-75
2024/03/04 01:27:27;;;;;;;;;9.50;8.75;;;;;21.60;38.30;100946.91;6400694;22;46102;-75
2024/03/04 01:29:52;;;;;;;;;11.75;10.50;;;;;21.52;38.42;100929.25;6401031;22;45379;-74
2024/03/04 01:32:20;;;;;;;;;14.75;11.00;;;;;21.59;38.72;100944.44;6400471;22;55301;-75
2024/03/04 01:34:45;;;;;;;;;12.00;11.00;;;;;21.58;38.48;100940.13;6400473;22;45449;-75
2024/03/04 01:37:10;;;;;;;;;12.25;10.75;;;;;21.51;38.21;100932.91;6400669;22;46197;-74
2024/03/04 01:39:36;;;;;;;;;12.25;11.25;;;;;21.59;38.23;100939.97;6400547;22;45297;-75
2024/03/04 01:42:01;;;;;;;;;11.50;9.75;;;;;21.59;38.39;100944.44;6400017;22;54545;-74
2024/03/04 01:44:37;;;;;;;;;11.50;9.75;;;;;21.58;38.82;100948.91;6401151;22;45412;-76
2024/03/04 01:47:07;;;;;;;;;11.00;11.00;;;;;21.58;38.65;100950.72;6400370;22;47119;-75
2024/03/04 01:49:35;;;;;;;;;6.00;5.75;;;;;21.55;38.78;100948.41;6400480;22;45237;-75
2024/03/04 01:52:02;;;;;;;;;9.25;3.25;;;;;21.47;38.71;100947.47;6400963;22;45282;-75
2024/03/04 01:54:29;;;;;;;;;12.00;10.25;;;;;21.48;38.16;100943.00;6400421;22;45280;-73
2024/03/04 01:56:55;;;;;;;;;11.00;9.50;;;;;21.53;38.20;100951.25;6400458;22;45962;-76
2024/03/04 01:59:20;;;;;;;;;8.75;8.75;;;;;21.49;38.30;100942.81;6400602;22;45213;-76
2024/03/04 02:01:46;;;;;;;;;11.00;10.00;;;;;21.49;38.25;100942.00;6400931;22;45219;-76
2024/03/04 02:04:12;;;;;;;;;9.00;8.00;;;;;21.50;38.43;100944.47;6401152;22;45251;-75
2024/03/04 02:06:38;;;;;;;;;11.50;9.00;;;;;21.50;38.36;100951.59;6400341;22;46071;-76
2024/03/04 02:09:04;;;;;;;;;10.50;9.00;;;;;21.46;38.34;100945.84;6400396;22;45280;-75
2024/03/04 02:11:30;;;;;;;;;11.25;9.25;;;;;21.47;38.44;100947.47;6400595;22;45255;-75
2024/03/04 02:13:57;;;;;;;;;10.25;10.00;;;;;21.56;38.18;100963.31;6400440;22;45454;-77
2024/03/04 02:16:22;;;;;;;;;10.75;10.00;;;;;21.49;38.21;100952.59;6400187;22;46184;-75
2024/03/04 02:18:47;;;;;;;;;10.50;9.00;;;;;21.44;38.49;100947.84;6400743;22;45217;-75
2024/03/04 02:21:14;;;;;;;;;10.00;8.50;;;;;21.47;38.21;100952.75;6400370;22;45351;-75
2024/03/04 02:23:40;;;;;;;;;7.25;7.00;;;;;21.35;38.10;100933.81;6400457;22;45407;-76
2024/03/04 02:26:06;;;;;;;;;10.00;9.50;;;;;21.23;38.19;100914.03;6400668;22;45311;-76
2024/03/04 02:28:31;;;;;;;;;13.00;11.00;;;;;21.54;38.26;100965.31;6400763;22;45287;-75
2024/03/04 02:31:00;;;;;;;;;9.50;9.00;;;;;21.54;38.36;100965.31;6400768;22;45201;-75
2024/03/04 02:33:27;;;;;;;;;11.25;9.50;;;;;21.51;38.59;100972.63;6400415;22;45222;-75
2024/03/04 02:35:53;;;;;;;;;9.75;9.00;;;;;21.50;38.44;100973.59;6400041;22;46098;-75
2024/03/04 02:38:19;;;;;;;;;12.75;10.75;;;;;21.53;38.53;100975.06;6400453;22;45287;-75
2024/03/04 02:40:45;;;;;;;;;10.00;10.00;;;;;21.35;38.31;100948.84;6400282;22;45256;-75
2024/03/04 02:43:11;;;;;;;;;11.75;8.00;;;;;21.51;38.37;100980.56;6400720;22;45314;-76
2024/03/04 02:45:38;;;;;;;;;10.50;9.25;;;;;21.55;38.49;100982.84;6399975;22;46056;-75
2024/03/04 02:48:05;;;;;;;;;8.75;8.75;;;;;21.54;38.28;100979.38;6400719;22;45258;-75
2024/03/04 02:50:31;;;;;;;;;10.25;10.25;;;;;21.54;38.01;100984.69;6399787;22;45344;-75
2024/03/04 02:52:56;;;;;;;;;13.75;10.00;;;;;21.54;38.38;100981.19;6400224;22;45347;-75
2024/03/04 02:55:21;;;;;;;;;8.75;7.25;;;;;21.55;38.22;100993.41;6400294;22;50171;-75
2024/03/04 02:57:47;;;;;;;;;7.25;6.00;;;;;21.54;38.36;100995.28;6399952;22;53539;-76
2024/03/04 03:00:12;;;;;;;;;8.50;6.75;;;;;21.43;38.38;100980.59;6400369;22;48794;-75
2024/03/04 03:02:37;;;;;;;;;10.00;9.75;;;;;21.52;38.47;100998.06;6400142;22;45387;-75
2024/03/04 03:05:03;;;;;;;;;11.75;10.25;;;;;21.51;38.45;100999.09;6400001;22;46039;-75
2024/03/04 03:07:28;;;;;;;;;10.00;9.00;;;;;;;;6400683;22;45383;-75
2024/03/04 03:09:54;;;;;;;;;9.25;9.25;;;;;21.52;37.88;101000.72;6400678;22;45249;-74
2024/03/04 03:12:19;;;;;;;;;8.25;7.75;;;;;21.52;38.03;100997.25;6400028;22;45322;-76
2024/03/04 03:14:44;;;;;;;;;9.50;7.50;;;;;21.51;38.18;101001.72;6400689;22;45238;-75
2024/03/04 03:17:10;;;;;;;;;10.50;8.50;;;;;21.51;38.43;100996.44;6399580;22;53267;-75
2024/03/04 03:19:36;;;;;;;;;12.25;9.50;;;;;21.48;37.84;100991.47;6400265;22;45292;-75
2024/03/04 03:22:02;;;;;;;;;9.50;9.00;;;;;21.45;37.86;100986.53;6400062;22;45450;-76
2024/03/04 03:24:28;;;;;;;;;10.00;8.50;;;;;21.51;38.07;100992.97;6399871;22;46083;-75
2024/03/04 03:26:53;;;;;;;;;10.00;8.00;;;;;21.43;38.23;100980.59;6399819;22;58423;-74
2024/03/04 03:29:18;;;;;;;;;9.50;8.25;;;;;21.41;38.32;100982.59;6400211;22;45250;-74
2024/03/04 03:31:44;;;;;;;;;13.75;8.75;;;;;21.51;37.86;100992.97;6400278;22;48215;-76
2024/03/04 03:34:10;;;;;;;;;6.75;6.50;;;;;21.48;38.10;100990.66;6399651;22;47223;-76
2024/03/04 03:36:42;;;;;;;;;9.50;7.50;;;;;21.48;38.16;100988.00;6399953;22;45217;-75
2024/03/04 03:39:09;;;;;;;;;8.00;8.00;;;;;21.49;37.96;100993.13;6400693;22;45237;-75
2024/03/04 03:41:36;;;;;;;;;13.00;8.00;;;;;21.51;37.86;101000.91;6400301;22;45436;-75
2024/03/04 03:44:01;;;;;;;;;6.25;6.00;;;;;21.40;37.85;100988.88;6399959;22;46050;-74
2024/03/04 03:46:26;;;;;;;;;10.00;9.00;;;;;21.51;37.88;101004.38;6400086;22;45277;-76
2024/03/04 03:48:52;;;;;;;;;11.25;8.00;;;;;21.51;38.33;101004.38;6399031;22;54171;-76
2024/03/04 03:51:17;;;;;;;;;8.25;8.25;;;;;21.51;37.97;101012.31;6400032;22;45305;-75
2024/03/04 03:53:42;;;;;;;;;9.25;8.75;;;;;21.36;38.30;100985.75;6399639;22;52800;-76
2024/03/04 03:56:08;;;;;;;;;10.75;9.75;;;;;21.50;37.92;101009.81;6399880;22;45311;-75
2024/03/04 03:58:33;;;;;;;;;9.75;9.75;;;;;21.48;37.82;101010.00;6398658;22;45354;-75
2024/03/04 04:00:58;;;;;;;;;9.75;8.50;;;;;21.44;37.77;101011.38;6399877;22;50661;-75
2024/03/04 04:03:24;;;;;;;;;7.33;7.33;;;;;21.49;37.94;101011.66;6399428;22;47082;-75
2024/03/04 04:05:49;;;;;;;;;8.67;8.00;;;;;21.49;37.89;101016.13;6400005;22;49506;-75
2024/03/04 04:08:14;;;;;;;;;9.25;8.50;;;;;21.49;38.24;101016.13;6400525;22;45315;-76
2024/03/04 04:10:40;;;;;;;;;10.75;9.00;;;;;21.48;37.86;101015.31;6399143;22;56068;-75
2024/03/04 04:13:05;;;;;;;;;9.50;7.50;;;;;21.32;37.96;100992.38;6399965;22;45394;-75
2024/03/04 04:15:30;;;;;;;;;8.75;8.00;;;;;21.31;37.71;100988.09;6399937;22;45214;-75
2024/03/04 04:17:56;;;;;;;;;8.75;8.25;;;;;21.48;38.18;101014.47;6399520;22;45226;-75
2024/03/04 04:20:21;;;;;;;;;10.50;9.00;;;;;21.48;38.07;101015.31;6400353;22;45259;-76
2024/03/04 04:22:47;;;;;;;;;5.75;5.75;;;;;21.36;37.91;100996.34;6399485;22;47066;-75
2024/03/04 04:25:13;;;;;;;;;10.00;8.00;;;;;21.42;38.03;101004.59;6399768;22;45216;-75
2024/03/04 04:27:39;;;;;;;;;9.50;8.75;;;;;21.36;37.93;101001.63;6399977;22;45355;-75
2024/03/04 04:30:06;;;;;;;;;8.00;7.50;;;;;21.45;38.32;101015.66;6399046;22;45213;-75
2024/03/04 04:32:31;;;;;;;;;9.67;8.33;;;;;21.40;37.95;101010.88;6371685;22;46104;-75
2024/03/04 04:34:57;;;;;;;;;8.25;8.25;;;;;21.45;38.32;101020.09;6400058;22;45432;-77
2024/03/04 04:37:22;;;;;;;;;7.67;7.67;;;;;21.44;38.28;101027.25;6399139;22;57744;-75
2024/03/04 04:39:47;;;;;;;;;10.00;7.25;;;;;21.32;38.16;101007.41;6400142;22;45198;-75
2024/03/04 04:42:13;;;;;;;;;8.00;7.00;;;;;21.42;38.19;101028.41;6399704;22;50418;-75
2024/03/04 04:44:38;;;;;;;;;8.75;8.75;;;;;21.44;37.67;101031.72;6371076;22;45338;-74
2024/03/04 04:47:03;;;;;;;;;7.75;7.75;;;;;21.44;38.08;101034.34;6399228;22;51677;-75
2024/03/04 04:49:29;;;;;;;;;9.33;7.67;;;;;21.32;37.58;101018.00;6399402;22;45279;-76
2024/03/04 04:51:54;;;;;;;;;7.67;7.67;;;;;21.40;37.92;101034.69;6399780;22;45457;-75
2024/03/04 04:54:19;;;;;;;;;10.50;8.00;;;;;21.44;37.91;101037.84;6399938;22;45328;-75
2024/03/04 04:56:48;;;;;;;;;8.25;7.00;;;;;21.42;37.89;101033.72;6399105;22;62273;-76
2024/03/04 04:59:14;;;;;;;;;10.00;7.75;;;;;21.44;38.67;101040.50;6399534;22;45398;-75
2024/03/04 05:01:39;;;;;;;;;9.25;8.25;;;;;21.44;38.00;101039.66;6398652;22;46310;-75
2024/03/04 05:04:06;;;;;;;;;8.00;7.50;;;;;21.44;37.64;101037.84;6398619;22;63607;-75
2024/03/04 05:06:31;;;;;;;;;7.25;7.25;;;;;21.18;37.34;100999.22;6400073;22;45256;-75
2024/03/04 05:08:57;;;;;;;;;8.00;8.00;;;;;21.44;37.50;101037.00;6399451;22;45275;-75
2024/03/04 05:11:23;;;;;;;;;9.25;5.75;;;;;21.40;37.77;101036.50;6399387;22;46518;-76
2024/03/04 05:13:48;;;;;;;;;8.25;8.25;;;;;21.43;37.71;101038.81;6399285;22;45256;-74
2024/03/04 05:16:15;;;;;;;;;7.33;7.33;;;;;21.44;37.69;101047.59;6398818;22;56521;-74
2024/03/04 05:18:40;;;;;;;;;8.00;7.00;;;;;21.33;37.35;101027.59;6399508;22;45274;-75
2024/03/04 05:21:06;;;;;;;;;8.50;8.50;;;;;21.41;37.53;101043.47;6398822;22;46758;-75
2024/03/04 05:23:31;;;;;;;;;9.25;7.00;;;;;21.44;37.79;101044.94;6399635;22;45288;-75
2024/03/04 05:25:58;;;;;;;;;6.25;6.00;;;;;21.37;37.89;101035.03;6399758;22;45281;-75
2024/03/04 05:28:24;;;;;;;;;8.33;6.00;;;;;21.42;37.59;101046.94;6399886;22;45190;-75
2024/03/04 05:30:50;;;;;;;;;7.50;6.25;;;;;;;;6370137;22;47118;-76
2024/03/04 05:33:15;;;;;;;;;5.75;5.75;;;;;21.42;37.73;101049.59;6399028;22;45363;-75
2024/03/04 05:35:40;;;;;;;;;7.25;6.00;;;;;21.40;38.02;101044.44;6399183;22;45376;-74
2024/03/04 05:38:06;;;;;;;;;7.25;7.25;;;;;21.37;37.85;101042.97;6399711;22;45476;-75
2024/03/04 05:40:31;;;;;;;;;7.50;6.75;;;;;21.40;37.90;101044.44;6398620;22;53151;-75
2024/03/04 05:42:57;;;;;;;;;7.00;6.00;;;;;21.39;37.95;101045.47;6398910;22;45257;-75
2024/03/04 05:45:23;;;;;;;;;9.00;7.00;;;;;21.32;37.77;101041.81;6398856;22;45407;-75
2024/03/04 05:47:48;;;;;;;;;6.75;6.00;;;;;21.36;37.63;101051.94;6399549;22;45239;-75
2024/03/04 05:50:14;;;;;;;;;8.00;8.00;;;;;21.38;37.96;101059.69;6398735;22;46249;-75
2024/03/04 05:52:45;;;;;;;;;7.50;7.50;;;;;21.33;37.72;101051.44;6398996;22;45329;-75
2024/03/04 05:55:11;;;;;;;;;5.67;5.67;;;;;21.38;37.68;101052.56;6398929;22;45314;-76
2024/03/04 05:57:37;;;;;;;;;7.75;5.25;;;;;21.29;37.66;101041.19;6399430;22;45449;-75
2024/03/04 06:00:03;;;;;;;;;7.75;7.00;;;;;21.33;37.60;101043.50;6399429;22;46062;-76
2024/03/04 06:02:32;;;;;;;;;8.33;7.33;;;;;21.32;37.47;101045.31;6400177;22;45380;-76
2024/03/04 06:04:57;;;;;;;;;10.67;8.00;;;;;21.38;37.49;101057.88;6400980;22;45271;-76
2024/03/04 06:07:22;;;;;;;;;9.67;6.00;;;;;21.38;37.67;101055.22;6400085;22;58688;-75
2024/03/04 06:09:48;;;;;;;;;9.75;5.75;;;;;21.39;37.51;101050.75;6400839;22;45270;-75
2024/03/04 06:12:13;;;;;;;;;6.25;6.25;;;;;21.05;37.53;100997.91;6400804;22;45233;-76
2024/03/04 06:14:39;;;;;;;;;5.50;5.50;;;;;21.26;37.75;101035.41;6400599;22;45467;-75
2024/03/04 06:17:05;;;;;;;;;6.75;5.00;;;;;21.37;37.48;101053.56;6400922;22;45266;-76
2024/03/04 06:19:31;;;;;;;;;6.33;6.00;;;;;21.36;37.68;101048.44;6400186;22;46376;-75
2024/03/04 06:21:57;;;;;;;;;6.00;5.50;;;;;21.30;37.82;101044.66;6400396;22;45303;-74
2024/03/04 06:24:22;;;;;;;;;6.00;6.00;;;;;21.31;38.02;101054.25;6400671;22;45497;-75
2024/03/04 06:26:47;;;;;;;;;6.00;6.00;;;;;21.34;37.60;101061.03;6400091;22;49662;-76
2024/03/04 06:29:13;;;;;;;;;5.00;4.75;;;;;21.27;37.72;101052.94;6400046;22;46248;-79
2024/03/04 06:31:38;;;;;;;;;5.33;5.33;;;;;21.11;37.38;101029.97;6400904;22;45271;-78
2024/03/04 06:34:03;;;;;;;;;5.75;5.00;;;;;21.34;38.08;101061.03;6399933;22;45331;-73
2024/03/04 06:36:28;;;;;;;;;7.00;7.00;;;;;21.35;38.36;101062.66;6400305;22;45439;-77
2024/03/04 06:38:54;;;;;;;;;5.00;5.00;;;;;21.36;38.38;101067.81;6398917;22;56251;-79
2024/03/04 06:41:19;;;;;;;;;5.75;5.75;;;;;21.37;38.42;101068.59;6398649;22;48357;-72
2024/03/04 06:43:44;;;;;;;;;7.75;7.25;;;;;21.38;38.69;101072.91;6400147;22;45325;-78
2024/03/04 06:46:10;;;;;;;;;6.50;6.50;;;;;21.40;38.30;101076.22;6399073;22;56498;-74
2024/03/04 06:48:35;;;;;;;;;7.50;7.25;;;;;21.34;38.69;101061.03;6370909;22;46146;-78
2024/03/04 06:51:01;;;;;;;;;6.25;5.75;;;;;21.34;38.62;101064.47;6400316;22;45305;-76
2024/03/04 06:53:27;;;;;;;;;8.00;6.50;;;;;21.46;38.58;101080.00;6371491;22;45263;-76
2024/03/04 06:55:53;;;;;;;;;6.25;6.00;;;;;21.45;38.40;101079.19;6399961;22;45235;-76
2024/03/04 06:58:19;;;;;;;;;9.33;8.00;;;;;21.46;38.09;101077.38;6399517;22;45243;-75
2024/03/04 07:00:44;;;;;;;;;7.50;5.00;;;;;21.47;38.70;101073.69;6399588;22;45268;-75
2024/03/04 07:03:10;;;;;;;;;9.00;7.50;;;;;21.48;38.88;101076.19;6400102;22;45523;-75
2024/03/04 07:05:36;;;;;;;;;3.25;1.25;;;;;21.48;38.25;101075.38;6400142;22;45316;-73
2024/03/04 07:08:01;;;;;;;;;5.50;5.50;;;;;21.49;38.32;101077.81;6399491;22;45319;-79
2024/03/04 07:10:27;;;;;;;;;5.67;5.67;;;;;21.51;38.41;101075.84;6399258;22;45437;-75
2024/03/04 07:12:52;;;;;;;;;7.00;5.33;;;;;21.55;38.27;101080.78;6399408;22;45182;-78
2024/03/04 07:15:17;;;;;;;;;4.67;4.00;;;;;21.58;38.43;101081.28;6400489;22;49681;-75
2024/03/04 07:17:42;;;;;;;;;9.00;5.00;;;;;21.55;38.04;101071.03;6399068;22;58361;-76
2024/03/04 07:20:09;;;;;;;;;6.50;4.50;;;;;21.67;38.35;101081.25;6400301;22;45319;-76
2024/03/04 07:22:36;;;;;;;;;7.00;5.75;;;;;21.70;37.90;101084.38;6400337;22;45330;-75
2024/03/04 07:25:02;;;;;;;;;5.75;5.75;;;;;21.75;38.17;101081.22;6400118;22;45230;-73
2024/03/04 07:27:27;;;;;;;;;5.67;5.67;;;;;21.76;37.51;101082.03;6400124;22;45218;-77
2024/03/04 07:29:52;;;;;;;;;6.00;5.33;;;;;21.81;38.15;101080.53;6399826;22;62114;-74
2024/03/04 07:32:18;;;;;;;;;9.00;6.00;;;;;21.84;37.79;101082.00;6400646;22;45256;-76
2024/03/04 07:34:44;;;;;;;;;6.75;6.25;;;;;21.88;37.87;101077.22;6400415;22;46821;-72
2024/03/04 07:37:09;;;;;;;;;5.00;5.00;;;;;21.90;37.66;101086.66;6399972;22;46239;-71
2024/03/04 07:39:35;;;;;;;;;7.00;7.00;;;;;21.93;38.21;101085.47;6400278;22;45099;-73
2024/03/04 07:42:00;;;;;;;;;7.00;6.00;;;;;21.96;38.11;101079.84;6400124;22;45324;-70
2024/03/04 07:44:25;;;;;;;;;8.33;5.67;;;;;22.00;38.09;101082.94;6400097;22;45231;-73
2024/03/04 07:46:50;;;;;;;;;6.00;6.00;;;;;22.02;37.86;101087.06;6400042;22;46044;-73
2024/03/04 07:49:18;;;;;;;;;6.33;4.33;;;;;22.03;37.66;101088.72;6399699;22;56142;-73
2024/03/04 07:51:43;;;;;;;;;6.25;4.75;;;;;21.97;38.04;101073.50;6399942;22;45344;-73
2024/03/04 07:54:08;;;;;;;;;6.33;5.00;;;;;22.10;38.11;101085.38;6400030;22;45379;-73
2024/03/04 07:56:34;;;;;;;;;10.00;5.00;;;;;22.09;38.29;101083.72;6399033;22;46120;-72
2024/03/04 07:59:00;;;;;;;;;4.33;4.33;;;;;22.15;38.01;101091.78;6400340;22;45237;-72
2024/03/04 08:01:25;;;;;;;;;5.67;5.67;;;;;22.18;37.99;101095.91;6400457;22;45300;-73
2024/03/04 08:03:50;;;;;;;;;5.00;5.00;;;;;22.13;37.48;101083.19;6400331;22;45398;-73
2024/03/04 08:06:16;;;;;;;;;9.33;5.33;;;;;22.23;37.94;101093.56;6400144;22;45247;-73
2024/03/04 08:08:42;;;;;;;;;7.67;6.33;;;;;22.25;38.16;101096.88;6399588;22;56999;-72
2024/03/04 08:11:09;;;;;;;;;5.33;4.00;;;;;22.21;37.74;101087.63;6399384;22;45212;-73
2024/03/04 08:13:34;;;;;;;;;5.00;5.00;;;;;22.31;37.63;101100.66;6399823;22;45437;-73
2024/03/04 08:15:59;;;;;;;;;5.33;5.33;;;;;22.31;37.68;101087.38;6399972;22;45363;-73
2024/03/04 08:18:25;;;;;;;;;4.33;4.33;;;;;22.35;37.65;101090.53;6399757;22;45486;-73
2024/03/04 08:20:52;;;;;;;;;4.33;4.00;;;;;22.35;37.77;101086.03;6399779;22;45306;-72
2024/03/04 08:23:18;;;;;;;;;7.33;5.33;;;;;22.39;38.25;101091.81;6399993;22;45314;-73
2024/03/04 08:25:43;;;;;;;;;4.00;4.00;;;;;22.43;38.30;101095.75;6399490;22;45295;-73
2024/03/04 08:28:09;;;;;;;;;5.00;5.00;;;;;22.37;37.87;101083.22;6399924;22;58401;-73
2024/03/04 08:30:36;;;;;;;;;5.00;5.00;;;;;22.47;37.55;101099.72;6398955;22;45264;-73
2024/03/04 08:33:03;;;;;;;;;6.33;4.00;;;;;22.51;38.24;101097.50;6399847;22;45326;-73
2024/03/04 08:35:29;;;;;;;;;6.00;4.67;;;;;22.53;37.89;101100.84;6399790;22;46289;-72
2024/03/04 08:37:54;;;;;;;;;5.00;3.00;;;;;22.52;37.90;101089.41;6398693;22;60887;-73
2024/03/04 08:40:19;;;;;;;;;3.33;3.33;;;;;22.53;37.96;101087.56;6399231;22;45425;-73
2024/03/04 08:42:45;;;;;;;;;4.00;4.00;;;;;22.60;38.14;101099.13;6400108;22;47597;-73
2024/03/04 08:45:10;;;;;;;;;5.67;4.67;;;;;22.64;38.27;101102.22;6399414;22;46209;-73
2024/03/04 08:47:36;;;;;;;;;4.67;4.00;;;;;22.65;37.80;101106.53;6399307;22;45298;-73
2024/03/04 08:50:01;;;;;;;;;3.00;3.00;;;;;22.67;38.08;101104.53;6399678;22;45259;-73
2024/03/04 08:52:27;;;;;;;;;8.00;7.00;;;;;22.67;37.66;101099.22;6399579;22;45395;-73
2024/03/04 08:54:53;;;;;;;;;5.33;4.67;;;;;22.70;37.79;101100.72;6398895;22;46933;-73
2024/03/04 08:57:19;;;;;;;;;5.00;5.00;;;;;22.67;38.00;101090.44;6399306;22;45425;-73
2024/03/04 08:59:44;;;;;;;;;7.67;6.00;;;;;22.74;38.05;101099.38;6399899;22;45276;-73
2024/03/04 09:02:10;;;;;;;;;5.33;5.00;;;;;22.76;37.74;101097.38;6399723;22;46999;-73
2024/03/04 09:04:36;;;;;;;;;4.00;4.00;;;;;22.74;37.96;101094.88;6399297;22;45966;-73
2024/03/04 09:07:01;;;;;;;;;6.00;4.00;;;;;22.79;37.68;101098.84;6399838;22;45161;-73
2024/03/04 09:09:26;;;;;;;;;5.33;4.00;;;;;22.80;38.11;101098.66;6399603;22;45267;-73
2024/03/04 09:11:52;;;;;;;;;5.00;5.00;;;;;22.80;37.81;101097.81;6399222;22;56173;-73
2024/03/04 09:14:21;;;;;;;;;4.00;4.00;;;;;22.80;37.82;101097.81;6399215;22;45194;-73
2024/03/04 09:16:46;;;;;;;;;5.67;3.67;;;;;22.76;37.45;101089.41;6399204;22;45304;-71
2024/03/04 09:19:11;;;;;;;;;6.33;6.33;;;;;22.83;38.02;101097.47;6399227;22;45252;-71
2024/03/04 09:21:36;;;;;;;;;4.33;4.33;;;;;22.84;37.64;101096.47;6398926;22;45298;-73
2024/03/04 09:24:02;;;;;;;;;7.00;5.33;;;;;22.85;38.39;101100.75;6399187;22;49943;-73
2024/03/04 09:26:27;;;;;;;;;5.00;5.00;;;;;22.84;37.59;101089.34;6370672;22;45382;-73
2024/03/04 09:28:53;;;;;;;;;6.33;5.67;;;;;22.86;38.19;101094.47;6399642;22;45299;-73
2024/03/04 09:31:18;;;;;;;;;8.00;4.00;;;;;22.87;37.74;101093.47;6399865;22;45329;-73
2024/03/04 09:33:45;;;;;;;;;3.00;3.00;;;;;22.87;37.51;101093.47;6399019;22;46925;-73
2024/03/04 09:36:10;;;;;;;;;6.00;4.00;;;;;22.88;37.82;101096.91;6400538;22;45281;-73
2024/03/04 09:38:35;;;;;;;;;5.00;5.00;;;;;22.87;38.27;101085.50;6400531;22;45416;-73
2024/03/04 09:41:02;;;;;;;;;5.67;4.33;;;;;22.89;37.82;101090.63;6400896;22;45462;-73
2024/03/04 09:43:32;;;;;;;;;4.00;3.00;;;;;22.88;37.75;101083.66;6400355;22;46025;-72
2024/03/04 09:46:00;;;;;;;;;4.00;4.00;;;;;22.90;37.79;101084.31;6400323;22;45298;-72
2024/03/04 09:48:26;;;;;;;;;8.00;4.00;;;;;22.87;37.59;101071.41;6400567;22;45225;-73
2024/03/04 09:50:55;;;;;;;;;3.00;3.00;;;;;22.90;37.56;101076.38;6371645;22;45422;-72
2024/03/04 09:53:21;;;;;;;;;3.00;3.00;;;;;22.87;38.05;101074.91;6400815;22;46116;-73
2024/03/04 09:55:47;;;;;;;;;4.00;4.00;;;;;22.91;38.15;101070.88;6400683;22;45233;-73
2024/03/04 09:58:12;;;;;;;;;5.00;4.33;;;;;22.91;38.20;101070.88;6400356;22;45255;-73
2024/03/04 10:00:40;;;;;;;;;3.33;3.33;;;;;22.92;37.87;101061.06;6400384;22;45228;-73
2024/03/04 10:03:07;;;;;;;;;7.33;5.00;;;;;22.92;37.78;101071.69;6400708;22;45352;-72
2024/03/04 10:05:34;;;;;;;;;4.33;4.33;;;;;22.92;38.07;101059.25;6400288;22;45262;-72
2024/03/04 10:07:59;;;;;;;;;3.00;3.00;;;;;22.87;37.86;101047.53;6400919;22;45304;-73
2024/03/04 10:10:24;;;;;;;;;3.33;3.33;;;;;22.87;38.06;101042.22;6400414;22;47348;-72
2024/03/04 10:12:50;;;;;;;;;5.67;3.33;;;;;22.91;38.25;101048.81;6400669;22;45145;-72
2024/03/04 10:15:20;;;;;;;;;6.00;4.00;;;;;22.91;38.16;101043.50;6400652;22;45279;-72
2024/03/04 10:17:45;;;;;;;;;4.00;4.00;;;;;22.90;38.40;101053.28;6400777;22;45360;-73
2024/03/04 10:20:11;;;;;;;;;4.00;4.00;;;;;22.90;38.17;101047.97;6399824;22;45229;-73
2024/03/04 10:22:40;;;;;;;;;4.33;4.00;;;;;22.89;37.84;101049.00;6399994;22;46154;-73
2024/03/04 10:25:13;;;;;;;;;3.00;3.00;;;;;22.89;38.26;101054.31;6400638;22;45366;-72
2024/03/04 10:27:42;;;;;;;;;4.00;4.00;;;;;22.89;38.12;101048.16;6400394;22;45262;-73
2024/03/04 10:30:19;;;;;;;;;4.33;4.00;;;;;22.88;38.03;101049.16;6400213;22;45418;-73
2024/03/04 10:32:50;;;;;;;;;4.00;2.67;;;;;22.88;38.04;101049.16;6400139;22;46325;-73
2024/03/04 10:35:16;;;;;;;;;4.00;4.00;;;;;22.86;37.82;101041.41;6400282;22;45350;-73
2024/03/04 10:37:43;;;;;;;;;2.00;2.00;;;;;22.84;38.60;101038.94;6400744;22;45279;-73
2024/03/04 10:40:09;;;;;;;;;4.67;4.00;;;;;22.85;38.12;101037.09;6400130;22;45476;-73
2024/03/04 10:43:00;;;;;;;;;3.33;3.33;;;;;22.83;38.31;101037.28;6400026;22;47080;-72
2024/03/04 10:45:31;;;;;;;;;4.33;3.33;;;;;22.83;38.16;101031.97;6382666;22;45245;-72
2024/03/04 10:47:58;;;;;;;;;3.00;3.00;;;;;22.78;37.97;101021.09;6399684;22;45716;-72
2024/03/04 10:50:23;;;;;;;;;4.00;2.33;;;;;22.83;38.25;101020.53;6399733;22;45545;-73
2024/03/04 10:52:49;;;;;;;;;4.67;3.33;;;;;22.82;38.01;101016.25;6400155;22;46382;-73
2024/03/04 10:55:14;;;;;;;;;3.00;3.00;;;;;22.82;38.16;101021.56;6400519;22;45210;-73
2024/03/04 10:57:44;;;;;;;;;6.00;4.33;;;;;22.81;38.27;101035.81;6400333;22;45279;-72
2024/03/04 11:00:19;;;;;;;;;6.00;4.00;;;;;22.80;38.57;101028.84;6400237;22;45420;-73
2024/03/04 11:03:09;;;;;;;;;5.00;3.00;;;;;22.79;38.17;101022.75;6399981;22;46170;-73
2024/03/04 11:05:38;;;;;;;;;5.67;3.67;;;;;22.71;38.13;101010.38;6400179;22;45322;-73
2024/03/04 11:08:15;;;;;;;;;5.00;3.00;;;;;22.70;38.32;101002.59;6400127;22;45302;-73
2024/03/04 11:10:46;;;;;;;;;3.67;2.00;;;;;22.76;38.29;101012.50;6399893;22;45432;-73
2024/03/04 11:13:29;;;;;;;;;3.67;3.00;;;;;22.72;37.96;101004.06;6400238;22;45268;-73
2024/03/04 11:16:01;;;;;;;;;5.00;3.00;;;;;22.68;38.52;101009.88;6400379;22;45240;-73
2024/03/04 11:18:45;;;;;;;;;7.00;4.00;;;;;22.68;38.59;100999.28;6399705;22;45228;-72
2024/03/04 11:21:11;;;;;;;;;6.00;3.67;;;;;22.71;38.62;101009.56;6400074;22;45753;-73